KBTL/BTL METAR and TAF weather

Enter ICAO airport designator
Station Type Date Time Source
KBTL METAR 2019/04/18 19:53 UTC NOAA

KBTL 181953Z 30013G18KT 5SM -RA BR BKN006 OVC025 12/11 A2958 RMK AO2 SLP015 P0008 T01170106


Station Type Date Time Source
KBTL Decoded METAR 2019/04/18 19:53 UTC NOAA

W.K.KELLOGG REGIONAL AIRPORT, MI, United States (KBTL) 42-18N 085-15W 290M
Apr 18, 2019 - 03:53 PM EDT / 2019.04.18 1953 UTC
Wind: from the WNW (300 degrees) at 15 MPH (13 KT) gusting to 21 MPH (18 KT):0
Visibility: 5 mile(s):0
Sky conditions: overcast
Weather: light rain; mist
Precipitation last hour: 0.08 inches
Temperature: 53.1 F (11.7 C)
Dew Point: 51.1 F (10.6 C)
Relative Humidity: 92%
Pressure (altimeter): 29.58 in. Hg (1001 hPa)
ob: KBTL 181953Z 30013G18KT 5SM -RA BR BKN006 OVC025 12/11 A2958 RMK AO2 SLP015 P0008 T01170106
cycle: 20

Station Type Date Time Source
KBTL TAF 2019/04/18 21:36 UTC NOAA

TAF
AMD KBTL 182033Z 1821/1918 30012G20KT 5SM -RA BR OVC006
FM182300 30012G20KT P6SM OVC012
FM190000 31010KT P6SM OVC015
FM190400 33009KT 4SM -SHRA BR OVC008
FM191200 36012G22KT 4SM -SHRA BR OVC008

Example: see airport list